Port Tampa Communities, FL

11:06 PM EST on December 03, 2016 (GMT -0500)
APRSWXNET | | Change Station

Elev 9 ft 27.88 °N, 82.49 °W | Updated 24 minutes ago

Clear
Clear
67 °F
Feels Like 67 °F
N
1
Wind Variable Wind from East
Gusts 3.0 mph

Today
High -- | Low -- °F
--% Chance of Precip.
Yesterday
High -- | Low -- °F
Precip. -- in
Pressure 30.11 in
Visibility 10.0 miles
Clouds Clear
Dew Point 61 °F
Humidity 80%
Rainfall in
Snow Depth Not available.
7:05 AM 5:34 PM
Waxing Crescent, 19% visible
METAR KMCF 040358Z AUTO 11010KT 10SM CLR 19/16 A3010 RMK AO2 SLP196 T01880163
Pressure 30.11 in
Visibility 10.0 miles
Clouds Clear
Dew Point 61 °F
Humidity 80%
Rainfall in
Snow Depth Not available.
7:05 AM 5:34 PM
Waxing Crescent, 19% visible
METAR KMCF 040358Z AUTO 11010KT 10SM CLR 19/16 A3010 RMK AO2 SLP196 T01880163

10-Day Weather Forecast

Almanac

Astronomy

Dec. 03, 2016 Rise Set
Actual Time
Civil Twilight
Nautical Twilight
Astronomical Twilight
Moon
Length of Visible Light
Length of Day
Tomorrow will be .
, % of the Moon is Illuminated

Today's Extremes

State Highs State Lows

Community

WunderPhotos

Upload Photos

1,955,573 photos uploaded!

WunderBlog® & News

Nearby

Air Quality

  Air Quality AQ Index Pollutant
Not available.

Snow Depth

Station Depth Elevation

Earthquake Activity

City Distance Mag. Time & Date
Minimum magnitude displayed is 2.5.

Coastal Water Temperatures

Place Temperature

Stations

Nearby Weather Stations

Station Location Temp. Windchill Dew Point Humidity Wind Precip. Elev Updated Type
                   

Watches & Warnings

There are currently no watches in effect.